createdAt,value
2019-02-09T00:00:51.057Z,0
2019-02-09T00:01:59.102Z,0
2019-02-09T00:03:07.157Z,0
2019-02-09T00:04:15.219Z,0
2019-02-09T00:05:23.267Z,0
2019-02-09T00:06:31.321Z,0
2019-02-09T00:07:39.386Z,0
2019-02-09T00:08:47.439Z,0
2019-02-09T00:09:55.490Z,0
2019-02-09T00:11:03.543Z,0
2019-02-09T00:12:11.581Z,0
2019-02-09T00:13:19.664Z,0
2019-02-09T00:14:27.719Z,0
2019-02-09T00:15:35.763Z,0
2019-02-09T00:16:43.873Z,0
2019-02-09T00:17:51.899Z,0
2019-02-09T00:18:59.937Z,0
2019-02-09T00:20:07.982Z,0
2019-02-09T00:21:16.048Z,0
2019-02-09T00:22:24.106Z,0
2019-02-09T00:23:32.148Z,0
2019-02-09T00:24:40.205Z,0
2019-02-09T00:25:48.267Z,0
2019-02-09T00:26:56.338Z,0
2019-02-09T00:28:04.358Z,0
2019-02-09T00:29:12.414Z,0
2019-02-09T00:30:20.479Z,0
2019-02-09T00:31:28.530Z,0
2019-02-09T00:32:36.595Z,0
2019-02-09T00:33:44.648Z,0
2019-02-09T00:34:52.703Z,0
2019-02-09T00:36:00.749Z,0
2019-02-09T00:37:08.801Z,0
2019-02-09T00:38:16.889Z,0
2019-02-09T00:39:24.920Z,0
2019-02-09T00:40:32.980Z,0
2019-02-09T00:41:41.027Z,0
2019-02-09T00:42:49.091Z,0
2019-02-09T00:43:57.138Z,0
2019-02-09T00:45:05.185Z,0
2019-02-09T00:46:13.258Z,0
2019-02-09T00:47:21.304Z,0
2019-02-09T00:48:29.356Z,0
2019-02-09T00:49:37.410Z,0
2019-02-09T00:50:45.566Z,0
2019-02-09T00:51:53.532Z,0
2019-02-09T00:53:01.560Z,0
2019-02-09T00:54:09.639Z,0
2019-02-09T00:55:17.712Z,0
2019-02-09T00:56:25.742Z,0
2019-02-09T00:57:33.813Z,0
2019-02-09T00:58:41.829Z,0
2019-02-09T00:59:54.111Z,0
2019-02-09T01:00:57.963Z,0
2019-02-09T01:02:06.030Z,0
2019-02-09T01:03:14.071Z,0
2019-02-09T01:04:22.097Z,0
2019-02-09T01:05:30.173Z,0
2019-02-09T01:06:38.242Z,0
2019-02-09T01:07:46.290Z,0
2019-02-09T01:08:54.371Z,0
2019-02-09T01:10:02.384Z,0
2019-02-09T01:11:10.455Z,0
2019-02-09T01:12:18.501Z,0
2019-02-09T01:13:26.574Z,0
2019-02-09T01:14:34.626Z,0
2019-02-09T01:15:42.668Z,0
2019-02-09T01:16:50.739Z,0
2019-02-09T01:17:58.786Z,0
2019-02-09T01:19:06.828Z,0
2019-02-09T01:20:14.890Z,0
2019-02-09T01:21:22.982Z,0
2019-02-09T01:22:31.002Z,0
2019-02-09T01:23:39.058Z,0
2019-02-09T01:24:47.109Z,0
2019-02-09T01:25:55.208Z,0
2019-02-09T01:27:03.219Z,0
2019-02-09T01:28:11.272Z,0
2019-02-09T01:29:19.329Z,0
2019-02-09T01:30:27.403Z,0
2019-02-09T01:31:35.442Z,0
2019-02-09T01:32:43.489Z,0
2019-02-09T01:33:51.530Z,0
2019-02-09T01:34:59.599Z,0
2019-02-09T01:36:07.741Z,0
2019-02-09T01:37:15.736Z,0
2019-02-09T01:38:23.836Z,0
2019-02-09T01:39:31.820Z,0
2019-02-09T01:40:39.889Z,0
2019-02-09T01:41:47.994Z,0
2019-02-09T01:42:55.985Z,0
2019-02-09T01:44:04.058Z,0
2019-02-09T01:45:12.094Z,0
2019-02-09T01:46:20.160Z,0
2019-02-09T01:47:28.222Z,0
2019-02-09T01:48:36.263Z,0
2019-02-09T01:49:44.317Z,0
2019-02-09T01:50:52.356Z,0
2019-02-09T01:52:00.432Z,0
2019-02-09T01:53:08.486Z,0
2019-02-09T01:54:16.538Z,0
2019-02-09T01:55:24.598Z,0
2019-02-09T01:56:32.658Z,0
2019-02-09T01:57:40.740Z,0
2019-02-09T01:58:49.412Z,0
2019-02-09T01:59:56.819Z,0
2019-02-09T02:01:04.877Z,0
2019-02-09T02:02:12.930Z,0
2019-02-09T02:03:20.979Z,0
2019-02-09T02:04:29.020Z,0
2019-02-09T02:05:37.089Z,0
2019-02-09T02:06:45.149Z,0
2019-02-09T02:07:53.222Z,0
2019-02-09T02:09:01.249Z,0
2019-02-09T02:10:09.307Z,0
2019-02-09T02:11:17.373Z,0
2019-02-09T02:12:25.425Z,0
2019-02-09T02:13:33.466Z,0
2019-02-09T02:14:41.500Z,0
2019-02-09T02:15:49.621Z,0
2019-02-09T02:16:57.642Z,0
2019-02-09T02:18:05.704Z,0
2019-02-09T02:19:13.767Z,0
2019-02-09T02:20:21.791Z,0
2019-02-09T02:21:29.855Z,0
2019-02-09T02:22:37.914Z,0
2019-02-09T02:23:45.979Z,0
2019-02-09T02:24:54.029Z,0
2019-02-09T02:26:02.065Z,0
2019-02-09T02:27:10.144Z,0
2019-02-09T02:28:18.209Z,0
2019-02-09T02:29:26.619Z,0
2019-02-09T02:30:34.699Z,0
2019-02-09T02:31:42.439Z,0
2019-02-09T02:32:51.589Z,0
2019-02-09T02:33:58.798Z,0
2019-02-09T02:35:06.521Z,0
2019-02-09T02:36:14.608Z,0
2019-02-09T02:37:22.633Z,0
2019-02-09T02:38:30.688Z,0
2019-02-09T02:39:38.746Z,0
2019-02-09T02:40:46.809Z,0
2019-02-09T02:41:54.847Z,0
2019-02-09T02:43:02.914Z,0
2019-02-09T02:44:10.963Z,0
2019-02-09T02:45:19.028Z,0
2019-02-09T02:46:27.076Z,0
2019-02-09T02:47:35.138Z,0
2019-02-09T02:48:43.186Z,0
2019-02-09T02:49:51.256Z,0
2019-02-09T02:51:00.081Z,0
2019-02-09T02:52:07.364Z,0
2019-02-09T02:53:16.540Z,0
2019-02-09T02:54:23.453Z,0
2019-02-09T02:55:31.508Z,0
2019-02-09T02:56:39.597Z,0
2019-02-09T02:57:47.644Z,0
2019-02-09T02:58:55.696Z,0
2019-02-09T03:00:03.743Z,0
2019-02-09T03:01:11.792Z,0
2019-02-09T03:02:19.865Z,0
2019-02-09T03:03:27.929Z,0
2019-02-09T03:04:35.965Z,0
2019-02-09T03:05:44.034Z,0
2019-02-09T03:06:52.069Z,0
2019-02-09T03:08:00.180Z,0
2019-02-09T03:09:08.218Z,0
2019-02-09T03:10:16.254Z,0
2019-02-09T03:11:24.307Z,0
2019-02-09T03:12:32.352Z,0
2019-02-09T03:13:40.424Z,0
2019-02-09T03:14:48.488Z,0
2019-02-09T03:15:56.537Z,0
2019-02-09T03:17:04.593Z,0
2019-02-09T03:18:12.651Z,0
2019-02-09T03:19:20.692Z,0
2019-02-09T03:20:28.765Z,0
2019-02-09T03:21:36.811Z,0
2019-02-09T03:22:44.872Z,0
2019-02-09T03:23:52.980Z,0
2019-02-09T03:25:01.033Z,0
2019-02-09T03:26:09.037Z,0
2019-02-09T03:27:17.082Z,0
2019-02-09T03:28:25.138Z,0
2019-02-09T03:29:33.203Z,0
2019-02-09T03:30:47.408Z,0
2019-02-09T03:31:49.324Z,0
2019-02-09T03:32:57.382Z,0
2019-02-09T03:34:05.429Z,0
2019-02-09T03:35:13.505Z,0
2019-02-09T03:36:21.517Z,0
2019-02-09T03:37:29.597Z,0
2019-02-09T03:38:37.664Z,0
2019-02-09T03:39:45.728Z,0
2019-02-09T03:40:53.779Z,0
2019-02-09T03:42:01.807Z,0
2019-02-09T03:43:09.889Z,0
2019-02-09T03:44:17.951Z,0
2019-02-09T03:45:25.998Z,0
2019-02-09T03:46:34.052Z,0
2019-02-09T03:47:42.085Z,0
2019-02-09T03:48:50.164Z,0
2019-02-09T03:49:58.214Z,0
2019-02-09T03:51:06.281Z,0
2019-02-09T03:52:14.332Z,0
2019-02-09T03:53:22.376Z,0
2019-02-09T03:54:30.442Z,0
2019-02-09T03:55:38.531Z,0
2019-02-09T03:56:46.557Z,0
2019-02-09T03:57:54.688Z,0
2019-02-09T03:59:02.663Z,0
2019-02-09T04:00:10.735Z,0
2019-02-09T04:01:18.783Z,0
2019-02-09T04:02:26.836Z,0
2019-02-09T04:03:34.895Z,0
2019-02-09T04:04:42.950Z,0
2019-02-09T04:05:51.004Z,0
2019-02-09T04:06:59.075Z,0
2019-02-09T04:08:07.116Z,0
2019-02-09T04:09:15.191Z,0
2019-02-09T04:10:23.242Z,0
2019-02-09T04:11:31.322Z,0
2019-02-09T04:12:39.378Z,0
2019-02-09T04:13:47.407Z,0
2019-02-09T04:14:55.461Z,0
2019-02-09T04:16:03.528Z,0
2019-02-09T04:17:11.561Z,0
2019-02-09T04:18:19.637Z,0
2019-02-09T04:19:27.700Z,0
2019-02-09T04:20:35.756Z,0
2019-02-09T04:21:43.814Z,0
2019-02-09T04:22:51.858Z,0
2019-02-09T04:23:59.910Z,0
2019-02-09T04:25:07.967Z,0
2019-02-09T04:26:16.036Z,0
2019-02-09T04:27:24.121Z,0
2019-02-09T04:28:32.123Z,0
2019-02-09T04:29:40.190Z,0
2019-02-09T04:30:48.312Z,0
2019-02-09T04:31:56.305Z,0
2019-02-09T04:33:04.370Z,0
2019-02-09T04:34:12.403Z,0
2019-02-09T04:35:20.485Z,0
2019-02-09T04:36:28.546Z,0
2019-02-09T04:37:36.605Z,0
2019-02-09T04:38:44.663Z,0
2019-02-09T04:39:52.713Z,0
2019-02-09T04:41:00.765Z,0
2019-02-09T04:42:08.826Z,0
2019-02-09T04:43:16.891Z,0
2019-02-09T04:44:25.041Z,0
2019-02-09T04:45:32.998Z,0
2019-02-09T04:46:41.049Z,0
2019-02-09T04:47:49.114Z,0
2019-02-09T04:48:57.171Z,0
2019-02-09T04:50:05.227Z,0
2019-02-09T04:51:13.285Z,0
2019-02-09T04:52:21.332Z,0
2019-02-09T04:53:29.399Z,0
2019-02-09T04:54:37.457Z,0
2019-02-09T04:55:45.502Z,0
2019-02-09T04:56:53.574Z,0
2019-02-09T04:58:01.647Z,0
2019-02-09T04:59:09.717Z,0
2019-02-09T05:00:17.746Z,0
2019-02-09T05:01:25.799Z,0
2019-02-09T05:02:33.863Z,0
2019-02-09T05:03:41.899Z,0
2019-02-09T05:04:49.983Z,0
2019-02-09T05:05:58.030Z,0
2019-02-09T05:07:06.089Z,0
2019-02-09T05:08:14.139Z,0
2019-02-09T05:09:22.178Z,0
2019-02-09T05:10:30.273Z,0
2019-02-09T05:11:38.315Z,0
2019-02-09T05:12:46.381Z,0
2019-02-09T05:13:54.460Z,0
2019-02-09T05:15:02.521Z,0
2019-02-09T05:16:10.537Z,0
2019-02-09T05:17:18.601Z,0
2019-02-09T05:18:26.662Z,0
2019-02-09T05:19:34.730Z,0
2019-02-09T05:20:42.789Z,0
2019-02-09T05:21:50.842Z,0
2019-02-09T05:22:58.887Z,0
2019-02-09T05:24:06.960Z,0
2019-02-09T05:25:15.031Z,0
2019-02-09T05:26:23.068Z,0
2019-02-09T05:27:31.121Z,0
2019-02-09T05:28:39.177Z,0
2019-02-09T05:29:47.242Z,0
2019-02-09T05:30:55.305Z,0
2019-02-09T05:32:03.353Z,0
2019-02-09T05:33:11.393Z,0
2019-02-09T05:34:19.463Z,0
2019-02-09T05:35:27.530Z,0
2019-02-09T05:36:35.625Z,0
2019-02-09T05:37:43.655Z,0
2019-02-09T05:38:51.679Z,0
2019-02-09T05:39:59.767Z,0
2019-02-09T05:41:07.836Z,0
2019-02-09T05:42:15.874Z,0
2019-02-09T05:43:23.937Z,0
2019-02-09T05:44:31.960Z,0
2019-02-09T05:45:40.058Z,0
2019-02-09T05:46:48.121Z,0
2019-02-09T05:47:56.160Z,0
2019-02-09T05:49:04.224Z,0
2019-02-09T05:50:12.257Z,0
2019-02-09T05:51:20.330Z,0
2019-02-09T05:52:28.402Z,0
2019-02-09T05:53:36.446Z,0
2019-02-09T05:54:44.504Z,0
2019-02-09T05:55:52.549Z,0
2019-02-09T05:57:00.629Z,0
2019-02-09T05:58:08.693Z,0
2019-02-09T05:59:16.747Z,0
2019-02-09T06:00:24.796Z,0
2019-02-09T06:01:32.863Z,0
2019-02-09T06:02:40.902Z,0
2019-02-09T06:03:48.994Z,0
2019-02-09T06:04:57.034Z,0
2019-02-09T06:06:05.093Z,0
2019-02-09T06:07:13.151Z,0
2019-02-09T06:08:21.241Z,0
2019-02-09T06:09:29.244Z,0
2019-02-09T06:10:37.318Z,0
2019-02-09T06:11:45.370Z,0
2019-02-09T06:12:53.428Z,4
2019-02-09T06:14:01.471Z,4
2019-02-09T06:15:09.554Z,0
2019-02-09T06:16:17.588Z,4
2019-02-09T06:17:25.651Z,4
2019-02-09T06:18:33.728Z,4
2019-02-09T06:19:41.755Z,8
2019-02-09T06:20:49.865Z,8
2019-02-09T06:21:57.889Z,8
2019-02-09T06:23:05.978Z,12
2019-02-09T06:24:14.033Z,16
2019-02-09T06:25:22.097Z,20
2019-02-09T06:26:30.148Z,24
2019-02-09T06:27:38.187Z,28
2019-02-09T06:28:46.237Z,28
2019-02-09T06:29:54.293Z,32
2019-02-09T06:31:02.377Z,40
2019-02-09T06:32:10.426Z,44
2019-02-09T06:33:18.468Z,56
2019-02-09T06:34:26.511Z,68
2019-02-09T06:35:34.579Z,68
2019-02-09T06:36:42.638Z,80
2019-02-09T06:37:50.748Z,100
2019-02-09T06:38:58.761Z,124
2019-02-09T06:40:06.812Z,136
2019-02-09T06:41:14.979Z,160
2019-02-09T06:42:22.952Z,180
2019-02-09T06:43:30.999Z,192
2019-02-09T06:44:39.039Z,228
2019-02-09T06:45:47.108Z,240
2019-02-09T06:46:55.155Z,284
2019-02-09T06:48:03.208Z,296
2019-02-09T06:49:11.281Z,324
2019-02-09T06:50:19.321Z,420
2019-02-09T06:51:27.392Z,484
2019-02-09T06:52:35.451Z,544
2019-02-09T06:53:43.500Z,552
2019-02-09T06:54:51.565Z,600
2019-02-09T06:55:59.620Z,644
2019-02-09T06:57:07.715Z,708
2019-02-09T06:58:15.740Z,772
2019-02-09T06:59:23.790Z,832
2019-02-09T07:00:31.840Z,892
2019-02-09T07:01:39.901Z,944
2019-02-09T07:02:47.965Z,992
2019-02-09T07:03:56.027Z,1044
2019-02-09T07:05:04.094Z,1068
2019-02-09T07:06:12.123Z,1076
2019-02-09T07:07:20.181Z,1072
2019-02-09T07:08:28.245Z,1120
2019-02-09T07:09:36.308Z,1196
2019-02-09T07:10:44.391Z,1232
2019-02-09T07:11:52.450Z,1248
2019-02-09T07:13:00.464Z,1248
2019-02-09T07:14:08.527Z,1228
2019-02-09T07:15:16.581Z,1240
2019-02-09T07:16:24.648Z,1288
2019-02-09T07:17:32.711Z,1292
2019-02-09T07:18:40.769Z,1284
2019-02-09T07:19:48.825Z,1344
2019-02-09T07:20:56.882Z,1420
2019-02-09T07:22:04.925Z,1512
2019-02-09T07:23:13.112Z,1612
2019-02-09T07:24:21.074Z,1712
2019-02-09T07:25:29.117Z,1856
2019-02-09T07:26:37.182Z,2024
2019-02-09T07:27:45.221Z,2192
2019-02-09T07:28:53.291Z,2488
2019-02-09T07:30:01.420Z,2376
2019-02-09T07:31:09.406Z,2516
2019-02-09T07:32:17.470Z,2672
2019-02-09T07:33:25.513Z,3000
2019-02-09T07:34:33.575Z,3356
2019-02-09T07:35:43.589Z,4688
2019-02-09T07:36:49.682Z,4452
2019-02-09T07:37:57.750Z,4228
2019-02-09T07:39:05.793Z,3708
2019-02-09T07:40:13.861Z,3132
2019-02-09T07:41:21.916Z,2720
2019-02-09T07:42:29.978Z,2364
2019-02-09T07:43:38.031Z,2080
2019-02-09T07:44:46.082Z,1968
2019-02-09T07:45:54.153Z,2096
2019-02-09T07:47:02.244Z,2708
2019-02-09T07:48:10.279Z,3220
2019-02-09T07:49:18.309Z,2864
2019-02-09T07:50:26.408Z,2796
2019-02-09T07:51:34.427Z,2904
2019-02-09T07:52:42.489Z,2864
2019-02-09T07:53:50.552Z,2712
2019-02-09T07:54:58.607Z,2556
2019-02-09T07:56:06.693Z,2500
2019-02-09T07:57:15.337Z,2528
2019-02-09T07:58:22.790Z,2516
2019-02-09T07:59:30.875Z,2612
2019-02-09T08:00:38.918Z,2828
2019-02-09T08:01:46.969Z,2884
2019-02-09T08:02:55.029Z,3028
2019-02-09T08:04:03.082Z,2556
2019-02-09T08:05:11.150Z,2516
2019-02-09T08:06:19.248Z,2360
2019-02-09T08:07:27.259Z,2416
2019-02-09T08:08:35.321Z,2756
2019-02-09T08:09:43.597Z,2904
2019-02-09T08:10:51.435Z,2936
2019-02-09T08:11:59.490Z,2964
2019-02-09T08:13:07.567Z,3128
2019-02-09T08:14:15.621Z,3408
2019-02-09T08:15:23.672Z,3808
2019-02-09T08:16:31.764Z,4060
2019-02-09T08:17:39.794Z,4424
2019-02-09T08:18:47.839Z,4680
2019-02-09T08:19:55.905Z,4844
2019-02-09T08:21:03.977Z,4836
2019-02-09T08:22:12.034Z,4680
2019-02-09T08:23:20.081Z,4704
2019-02-09T08:24:28.126Z,4712
2019-02-09T08:25:36.200Z,4840
2019-02-09T08:26:44.258Z,4904
2019-02-09T08:27:52.317Z,5120
2019-02-09T08:29:00.405Z,5424
2019-02-09T08:30:08.443Z,5576
2019-02-09T08:31:16.515Z,5740
2019-02-09T08:32:24.546Z,5800
2019-02-09T08:33:32.616Z,5756
2019-02-09T08:34:40.682Z,5796
2019-02-09T08:35:48.752Z,5864
2019-02-09T08:36:56.792Z,6060
2019-02-09T08:38:04.968Z,6316
2019-02-09T08:39:12.960Z,6412
2019-02-09T08:40:20.966Z,6240
2019-02-09T08:41:29.014Z,5580
2019-02-09T08:42:37.076Z,5284
2019-02-09T08:43:45.174Z,4840
2019-02-09T08:44:53.205Z,4508
2019-02-09T08:46:01.268Z,4344
2019-02-09T08:47:09.315Z,4332
2019-02-09T08:48:17.391Z,4068
2019-02-09T08:49:25.509Z,4064
2019-02-09T08:50:33.496Z,3996
2019-02-09T08:51:41.553Z,4088
2019-02-09T08:52:50.011Z,4216
2019-02-09T08:53:57.693Z,4300
2019-02-09T08:55:05.758Z,4360
2019-02-09T08:56:13.808Z,4064
2019-02-09T08:57:21.853Z,3908
2019-02-09T08:58:29.931Z,3912
2019-02-09T08:59:38.028Z,4080
2019-02-09T09:00:46.214Z,4020
2019-02-09T09:01:54.706Z,4348
2019-02-09T09:03:02.145Z,4112
2019-02-09T09:04:10.227Z,3772
2019-02-09T09:05:18.846Z,3568
2019-02-09T09:06:26.349Z,3616
2019-02-09T09:07:34.415Z,3824
2019-02-09T09:08:42.716Z,4132
2019-02-09T09:09:52.799Z,4552
2019-02-09T09:10:59.156Z,5212
2019-02-09T09:12:06.638Z,6108
2019-02-09T09:13:14.691Z,6848
2019-02-09T09:14:22.791Z,7428
2019-02-09T09:15:30.830Z,7752
2019-02-09T09:16:38.899Z,7948
2019-02-09T09:17:46.961Z,8292
2019-02-09T09:18:54.991Z,8632
2019-02-09T09:20:03.061Z,9028
2019-02-09T09:21:11.120Z,9148
2019-02-09T09:22:19.192Z,9212
2019-02-09T09:23:27.358Z,9296
2019-02-09T09:24:35.286Z,9512
2019-02-09T09:25:43.376Z,9660
2019-02-09T09:26:51.426Z,9588
2019-02-09T09:27:59.489Z,9368
2019-02-09T09:29:07.556Z,9144
2019-02-09T09:30:15.700Z,9044
2019-02-09T09:31:23.675Z,8760
2019-02-09T09:32:31.696Z,8992
2019-02-09T09:33:39.797Z,9584
2019-02-09T09:34:47.867Z,9388
2019-02-09T09:35:55.910Z,9484
2019-02-09T09:37:03.988Z,9080
2019-02-09T09:38:12.020Z,8268
2019-02-09T09:39:20.096Z,7332
2019-02-09T09:40:28.154Z,6176
2019-02-09T09:41:36.988Z,5308
2019-02-09T09:42:44.306Z,4752
2019-02-09T09:43:52.312Z,4676
2019-02-09T09:45:00.439Z,4784
2019-02-09T09:46:08.472Z,5112
2019-02-09T09:47:16.540Z,5288
2019-02-09T09:48:24.590Z,5504
2019-02-09T09:49:32.653Z,5624
2019-02-09T09:50:40.719Z,5504
2019-02-09T09:51:48.790Z,5524
2019-02-09T09:52:56.828Z,5336
2019-02-09T09:54:04.901Z,5220
2019-02-09T09:55:12.965Z,5280
2019-02-09T09:56:21.030Z,5488
2019-02-09T09:57:29.085Z,5376
2019-02-09T09:58:37.146Z,5328
2019-02-09T09:59:45.201Z,5232
2019-02-09T10:00:53.297Z,5068
2019-02-09T10:02:01.342Z,5068
2019-02-09T10:03:09.401Z,5404
2019-02-09T10:04:17.449Z,5804
2019-02-09T10:05:25.521Z,6148
2019-02-09T10:06:33.570Z,6788
2019-02-09T10:07:41.632Z,7228
2019-02-09T10:08:49.696Z,7664
2019-02-09T10:09:57.763Z,8208
2019-02-09T10:11:05.826Z,8228
2019-02-09T10:12:13.891Z,7896
2019-02-09T10:13:21.923Z,7324
2019-02-09T10:14:30.010Z,6816
2019-02-09T10:15:38.082Z,6444
2019-02-09T10:16:46.128Z,6252
2019-02-09T10:17:54.210Z,6172
2019-02-09T10:19:02.228Z,6216
2019-02-09T10:20:10.312Z,6140
2019-02-09T10:21:18.370Z,6228
2019-02-09T10:22:26.435Z,6236
2019-02-09T10:23:34.526Z,5984
2019-02-09T10:24:42.552Z,5836
2019-02-09T10:25:50.619Z,5624
2019-02-09T10:26:58.692Z,5504
2019-02-09T10:28:06.768Z,5320
2019-02-09T10:29:15.018Z,4940
2019-02-09T10:30:22.902Z,4724
2019-02-09T10:31:30.937Z,4664
2019-02-09T10:32:44.252Z,4628
2019-02-09T10:33:47.064Z,4276
2019-02-09T10:34:55.113Z,4204
2019-02-09T10:36:03.176Z,4052
2019-02-09T10:37:11.228Z,4016
2019-02-09T10:38:19.287Z,4100
2019-02-09T10:39:27.361Z,4348
2019-02-09T10:40:35.420Z,4648
2019-02-09T10:41:43.486Z,4836
2019-02-09T10:42:51.537Z,4928
2019-02-09T10:43:59.595Z,5012
2019-02-09T10:45:07.806Z,4760
2019-02-09T10:46:15.724Z,4536
2019-02-09T10:47:23.799Z,4636
2019-02-09T10:48:31.865Z,4820
2019-02-09T10:49:39.911Z,4952
2019-02-09T10:50:47.982Z,5176
2019-02-09T10:51:56.049Z,5008
2019-02-09T10:53:04.091Z,5224
2019-02-09T10:54:12.136Z,5356
2019-02-09T10:55:20.230Z,5604
2019-02-09T10:56:28.278Z,5816
2019-02-09T10:57:36.355Z,5828
2019-02-09T10:58:44.415Z,5860
2019-02-09T10:59:52.466Z,5704
2019-02-09T11:01:00.555Z,5748
2019-02-09T11:02:08.581Z,5832
2019-02-09T11:03:16.662Z,5944
2019-02-09T11:04:24.697Z,6076
2019-02-09T11:05:32.768Z,6016
2019-02-09T11:06:40.871Z,5832
2019-02-09T11:07:48.893Z,5812
2019-02-09T11:08:56.966Z,5692
2019-02-09T11:10:05.017Z,5736
2019-02-09T11:11:13.090Z,6084
2019-02-09T11:12:21.420Z,6412
2019-02-09T11:13:29.195Z,6332
2019-02-09T11:14:37.281Z,6324
2019-02-09T11:15:45.321Z,6192
2019-02-09T11:16:53.382Z,6052
2019-02-09T11:18:01.438Z,5912
2019-02-09T11:19:09.518Z,5916
2019-02-09T11:20:17.574Z,5888
2019-02-09T11:21:25.631Z,5820
2019-02-09T11:22:33.688Z,5908
2019-02-09T11:23:41.781Z,6108
2019-02-09T11:24:49.825Z,6600
2019-02-09T11:25:57.887Z,7360
2019-02-09T11:27:05.960Z,7328
2019-02-09T11:28:14.020Z,6696
2019-02-09T11:29:22.046Z,7280
2019-02-09T11:30:30.144Z,6704
2019-02-09T11:31:39.283Z,6684
2019-02-09T11:32:46.281Z,6716
2019-02-09T11:33:54.336Z,7116
2019-02-09T11:35:02.381Z,7248
2019-02-09T11:36:10.454Z,7368
2019-02-09T11:37:18.505Z,7516
2019-02-09T11:38:26.575Z,7632
2019-02-09T11:39:34.641Z,7528
2019-02-09T11:40:42.698Z,7572
2019-02-09T11:41:50.780Z,7568
2019-02-09T11:42:58.839Z,7292
2019-02-09T11:44:06.938Z,7196
2019-02-09T11:45:14.974Z,7136
2019-02-09T11:46:23.022Z,7004
2019-02-09T11:47:31.117Z,6844
2019-02-09T11:48:39.158Z,6764
2019-02-09T11:49:47.243Z,6772
2019-02-09T11:50:55.279Z,6836
2019-02-09T11:52:03.339Z,6660
2019-02-09T11:53:11.419Z,6548
2019-02-09T11:54:19.461Z,6540
2019-02-09T11:55:27.518Z,6452
2019-02-09T11:56:36.352Z,6652
2019-02-09T11:57:43.731Z,6652
2019-02-09T11:58:51.684Z,6788
2019-02-09T11:59:59.788Z,6848
2019-02-09T12:01:07.829Z,6720
2019-02-09T12:02:15.902Z,6440
2019-02-09T12:03:23.967Z,6352
2019-02-09T12:04:32.008Z,6352
2019-02-09T12:05:40.095Z,6424
2019-02-09T12:06:48.162Z,6280
2019-02-09T12:07:56.226Z,6388
2019-02-09T12:09:04.302Z,6564
2019-02-09T12:10:12.320Z,6524
2019-02-09T12:11:20.455Z,6808
2019-02-09T12:12:28.474Z,6980
2019-02-09T12:13:36.546Z,7196
2019-02-09T12:14:44.592Z,7328
2019-02-09T12:15:52.671Z,7484
2019-02-09T12:17:00.732Z,7352
2019-02-09T12:18:08.782Z,7208
2019-02-09T12:19:16.858Z,7048
2019-02-09T12:20:24.902Z,6884
2019-02-09T12:21:32.992Z,7188
2019-02-09T12:22:41.048Z,6920
2019-02-09T12:23:49.096Z,6936
2019-02-09T12:24:57.170Z,6892
2019-02-09T12:26:05.238Z,6844
2019-02-09T12:27:13.287Z,6884
2019-02-09T12:28:21.339Z,7004
2019-02-09T12:29:29.417Z,7316
2019-02-09T12:30:37.499Z,8052
2019-02-09T12:31:45.582Z,8496
2019-02-09T12:32:53.598Z,8716
2019-02-09T12:34:01.663Z,8464
2019-02-09T12:35:09.783Z,8140
2019-02-09T12:36:17.790Z,7464
2019-02-09T12:37:25.876Z,7236
2019-02-09T12:38:33.922Z,7224
2019-02-09T12:39:41.987Z,7228
2019-02-09T12:40:50.125Z,7252
2019-02-09T12:41:58.226Z,7304
2019-02-09T12:43:06.180Z,7256
2019-02-09T12:44:14.243Z,7396
2019-02-09T12:45:22.296Z,7400
2019-02-09T12:46:30.671Z,7536
2019-02-09T12:47:38.436Z,7588
2019-02-09T12:48:46.490Z,7736
2019-02-09T12:49:54.565Z,7916
2019-02-09T12:51:02.659Z,8116
2019-02-09T12:52:10.687Z,8096
2019-02-09T12:53:19.429Z,7864
2019-02-09T12:54:26.821Z,7628
2019-02-09T12:55:34.873Z,7436
2019-02-09T12:56:42.944Z,7424
2019-02-09T12:57:50.997Z,7384
2019-02-09T12:58:59.072Z,7420
2019-02-09T13:00:07.148Z,7264
2019-02-09T13:01:15.193Z,7060
2019-02-09T13:02:23.267Z,6908
2019-02-09T13:03:31.623Z,6880
2019-02-09T13:04:39.380Z,6544
2019-02-09T13:05:47.445Z,6468
2019-02-09T13:06:55.492Z,6432
2019-02-09T13:08:03.582Z,6448
2019-02-09T13:09:11.636Z,6364
2019-02-09T13:10:19.693Z,6184
2019-02-09T13:11:27.787Z,6256
2019-02-09T13:12:35.853Z,6340
2019-02-09T13:13:43.942Z,6316
2019-02-09T13:14:51.947Z,6272
2019-02-09T13:16:00.033Z,6204
2019-02-09T13:17:08.094Z,6120
2019-02-09T13:18:16.221Z,6100
2019-02-09T13:19:24.224Z,6100
2019-02-09T13:20:32.281Z,6116
2019-02-09T13:21:40.344Z,6100
2019-02-09T13:22:48.421Z,6284
2019-02-09T13:23:56.497Z,6428
2019-02-09T13:25:04.543Z,6356
2019-02-09T13:26:12.601Z,6460
2019-02-09T13:27:20.668Z,6512
2019-02-09T13:28:28.747Z,6496
2019-02-09T13:29:36.797Z,6544
2019-02-09T13:30:44.861Z,6484
2019-02-09T13:31:52.902Z,6604
2019-02-09T13:33:01.032Z,6768
2019-02-09T13:34:09.049Z,6996
2019-02-09T13:35:17.116Z,7136
2019-02-09T13:36:25.177Z,7176
2019-02-09T13:37:33.224Z,7240
2019-02-09T13:38:41.281Z,7164
2019-02-09T13:39:49.360Z,7148
2019-02-09T13:40:57.419Z,6956
2019-02-09T13:42:05.484Z,6968
2019-02-09T13:43:13.556Z,6976
2019-02-09T13:44:21.584Z,6984
2019-02-09T13:45:29.691Z,6996
2019-02-09T13:46:37.740Z,6980
2019-02-09T13:47:46.419Z,7016
2019-02-09T13:48:53.866Z,6988
2019-02-09T13:50:01.938Z,6952
2019-02-09T13:51:10.049Z,6804
2019-02-09T13:52:18.114Z,6748
2019-02-09T13:53:26.149Z,6880
2019-02-09T13:54:34.219Z,6724
2019-02-09T13:55:42.230Z,6772
2019-02-09T13:56:50.325Z,6740
2019-02-09T13:57:58.394Z,6688
2019-02-09T13:59:06.469Z,6588
2019-02-09T14:00:14.489Z,6500
2019-02-09T14:01:22.556Z,6476
2019-02-09T14:02:30.652Z,6540
2019-02-09T14:03:46.501Z,6500
2019-02-09T14:04:46.759Z,6640
2019-02-09T14:05:54.846Z,6580
2019-02-09T14:07:02.922Z,6588
2019-02-09T14:08:11.005Z,6596
2019-02-09T14:09:19.026Z,6556
2019-02-09T14:10:27.141Z,6568
2019-02-09T14:11:35.159Z,6540
2019-02-09T14:12:43.249Z,6544
2019-02-09T14:13:51.297Z,6532
2019-02-09T14:14:59.316Z,6440
2019-02-09T14:16:07.966Z,6596
2019-02-09T14:17:15.468Z,6704
2019-02-09T14:18:23.511Z,6756
2019-02-09T14:19:31.548Z,6868
2019-02-09T14:20:40.508Z,6856
2019-02-09T14:21:47.724Z,6756
2019-02-09T14:22:55.789Z,6656
2019-02-09T14:24:03.848Z,6640
2019-02-09T14:25:11.889Z,6512
2019-02-09T14:26:19.952Z,6360
2019-02-09T14:27:28.036Z,6292
2019-02-09T14:28:36.098Z,6288
2019-02-09T14:29:44.150Z,6272
2019-02-09T14:30:52.199Z,6180
2019-02-09T14:32:00.270Z,6104
2019-02-09T14:33:08.342Z,6016
2019-02-09T14:34:16.412Z,5900
2019-02-09T14:35:24.533Z,5784
2019-02-09T14:36:32.705Z,5640
2019-02-09T14:37:40.592Z,5548
2019-02-09T14:38:48.663Z,5476
2019-02-09T14:39:56.758Z,5448
2019-02-09T14:41:04.789Z,5428
2019-02-09T14:42:12.853Z,5412
2019-02-09T14:43:20.956Z,5380
2019-02-09T14:44:28.984Z,5400
2019-02-09T14:45:37.045Z,5304
2019-02-09T14:46:45.112Z,5208
2019-02-09T14:47:53.157Z,5108
2019-02-09T14:49:01.330Z,5012
2019-02-09T14:50:11.226Z,4936
2019-02-09T14:51:17.345Z,4872
2019-02-09T14:52:25.422Z,4772
2019-02-09T14:53:33.473Z,4672
2019-02-09T14:54:41.525Z,4572
2019-02-09T14:55:49.619Z,4484
2019-02-09T14:56:57.676Z,4404
2019-02-09T14:58:05.731Z,4324
2019-02-09T14:59:13.788Z,4276
2019-02-09T15:00:21.839Z,4200
2019-02-09T15:01:29.964Z,4076
2019-02-09T15:02:38.009Z,3940
2019-02-09T15:03:46.054Z,3808
2019-02-09T15:04:54.100Z,3700
2019-02-09T15:06:02.142Z,3632
2019-02-09T15:07:10.231Z,3600
2019-02-09T15:08:18.297Z,3564
2019-02-09T15:09:26.379Z,3524
2019-02-09T15:10:34.416Z,3492
2019-02-09T15:11:42.487Z,3424
2019-02-09T15:12:50.541Z,3332
2019-02-09T15:13:58.619Z,3244
2019-02-09T15:15:06.684Z,3160
2019-02-09T15:16:14.732Z,3088
2019-02-09T15:17:22.800Z,3040
2019-02-09T15:18:30.864Z,2984
2019-02-09T15:19:38.918Z,2912
2019-02-09T15:20:47.018Z,2848
2019-02-09T15:21:55.085Z,2784
2019-02-09T15:23:03.107Z,2748
2019-02-09T15:24:11.202Z,2712
2019-02-09T15:25:19.231Z,2672
2019-02-09T15:26:27.275Z,2620
2019-02-09T15:27:35.352Z,2568
2019-02-09T15:28:43.417Z,2512
2019-02-09T15:29:51.470Z,2464
2019-02-09T15:30:59.554Z,2440
2019-02-09T15:32:07.589Z,2416
2019-02-09T15:33:15.661Z,2384
2019-02-09T15:34:24.191Z,2332
2019-02-09T15:35:32.071Z,2264
2019-02-09T15:36:40.271Z,2180
2019-02-09T15:37:48.512Z,2092
2019-02-09T15:38:56.558Z,2016
2019-02-09T15:40:04.581Z,1952
2019-02-09T15:41:12.673Z,1904
2019-02-09T15:42:21.591Z,1856
2019-02-09T15:43:28.966Z,1828
2019-02-09T15:44:36.874Z,1812
2019-02-09T15:45:44.834Z,1800